Time;durP1;ratioP1;P1;durP2;ratioP2;P2;SDS_P1;SDS_P2;PMS_P1;PMS_P2;Temp;Humidity;BMP_temperature;BMP_pressure;BME280_temperature;BME280_humidity;BME280_pressure;Samples;Min_cycle;Max_cycle;Signal;HPM_P1;HPM_P2
2021/08/16 00:01:40;;;;;;;9.65;2.95;;;17.50;99.90;;;;;;5095665;28;20020;-77
2021/08/16 00:04:05;;;;;;;16.30;4.05;;;17.50;99.90;;;;;;5090206;28;20031;-74
2021/08/16 00:06:31;;;;;;;11.43;3.67;;;17.60;99.90;;;;;;5096010;28;20121;-74
2021/08/16 00:08:57;;;;;;;11.38;3.92;;;17.60;99.90;;;;;;5096127;28;20009;-81
2021/08/16 00:11:22;;;;;;;10.57;3.65;;;17.70;99.90;;;;;;5096161;28;20020;-77
2021/08/16 00:13:48;;;;;;;12.82;3.40;;;17.70;99.90;;;;;;5096322;28;20095;-79
2021/08/16 00:16:13;;;;;;;11.85;4.00;;;17.70;99.90;;;;;;5095343;28;20074;-74
2021/08/16 00:18:39;;;;;;;9.63;3.75;;;17.80;99.90;;;;;;5094697;28;20114;-79
2021/08/16 00:21:04;;;;;;;13.90;4.25;;;17.80;99.90;;;;;;5095236;28;21237;-74
2021/08/16 00:23:30;;;;;;;9.65;3.75;;;17.80;99.90;;;;;;5085773;28;20029;-77
2021/08/16 00:25:56;;;;;;;9.30;4.35;;;17.80;99.90;;;;;;5087563;28;20056;-80
2021/08/16 00:28:21;;;;;;;9.55;3.10;;;17.80;99.90;;;;;;5096378;28;20028;-81
2021/08/16 00:30:47;;;;;;;11.35;3.70;;;17.80;99.90;;;;;;5095425;28;20023;-78
2021/08/16 00:33:13;;;;;;;9.82;3.45;;;17.90;99.90;;;;;;5105483;28;20024;-81
2021/08/16 00:35:38;;;;;;;12.75;4.07;;;17.80;99.90;;;;;;5095767;28;20499;-75
2021/08/16 00:38:04;;;;;;;9.23;3.50;;;17.90;99.90;;;;;;5107611;28;20486;-75
2021/08/16 00:40:30;;;;;;;10.25;3.80;;;17.90;99.90;;;;;;5114378;28;20057;-79
2021/08/16 00:42:56;;;;;;;8.88;3.70;;;17.90;99.90;;;;;;5107097;28;20037;-87
2021/08/16 00:45:24;;;;;;;14.27;4.50;;;17.90;99.90;;;;;;5095744;28;20138;-79
2021/08/16 00:47:49;;;;;;;13.90;3.67;;;17.90;99.90;;;;;;5093831;28;20020;-77
2021/08/16 00:50:15;;;;;;;16.88;4.45;;;17.80;99.90;;;;;;5109108;28;20104;-78
2021/08/16 00:52:42;;;;;;;11.98;3.78;;;17.80;99.90;;;;;;5116120;28;20024;-73
2021/08/16 00:55:09;;;;;;;23.85;5.22;;;17.80;99.90;;;;;;5115099;28;20031;-74
2021/08/16 00:57:36;;;;;;;9.82;3.72;;;17.70;99.90;;;;;;5116139;28;20392;-76
2021/08/16 01:00:07;;;;;;;14.25;4.07;;;17.80;99.90;;;;;;5115420;28;20032;-84
2021/08/16 01:02:33;;;;;;;12.50;3.97;;;17.70;99.90;;;;;;5114342;28;20020;-76
2021/08/16 01:05:07;;;;;;;11.15;4.10;;;17.60;99.90;;;;;;5115772;28;20023;-76
2021/08/16 01:07:33;;;;;;;15.55;3.92;;;17.60;99.90;;;;;;5115387;28;20020;-82
2021/08/16 01:10:00;;;;;;;9.80;3.45;;;17.70;99.90;;;;;;5115731;28;20019;-76
2021/08/16 01:12:29;;;;;;;12.98;4.45;;;17.70;99.90;;;;;;5114442;28;20051;-87
2021/08/16 01:14:54;;;;;;;10.35;3.80;;;17.70;99.90;;;;;;5114981;28;20031;-85
2021/08/16 01:17:20;;;;;;;10.00;3.80;;;17.70;99.90;;;;;;5114635;28;20016;-78
2021/08/16 01:19:46;;;;;;;10.77;4.20;;;17.80;99.90;;;;;;5115474;28;20142;-89
2021/08/16 01:22:12;;;;;;;9.52;3.95;;;17.70;99.90;;;;;;5113858;28;20047;-80
2021/08/16 01:24:39;;;;;;;18.83;4.88;;;17.80;99.90;;;;;;5115423;28;20031;-87
2021/08/16 01:27:07;;;;;;;13.38;3.65;;;17.70;99.90;;;;;;5114510;28;20072;-82
2021/08/16 01:29:33;;;;;;;16.65;4.03;;;17.60;99.90;;;;;;5113419;28;20047;-76
2021/08/16 01:32:00;;;;;;;12.77;4.35;;;17.60;99.90;;;;;;5115226;28;20023;-76
2021/08/16 01:34:25;;;;;;;11.82;3.53;;;17.60;99.90;;;;;;5115802;28;20019;-88
2021/08/16 01:36:51;;;;;;;10.43;3.85;;;17.60;99.90;;;;;;5113948;28;20028;-85
2021/08/16 01:39:16;;;;;;;13.02;4.20;;;17.60;99.90;;;;;;5115043;28;20464;-79
2021/08/16 01:41:42;;;;;;;14.55;4.45;;;17.60;99.90;;;;;;5113341;28;20032;-74
2021/08/16 01:44:14;;;;;;;12.70;4.35;;;17.60;99.90;;;;;;5114891;28;20094;-82
2021/08/16 01:46:40;;;;;;;15.60;5.03;;;17.70;99.90;;;;;;5113907;28;20453;-78
2021/08/16 01:49:08;;;;;;;13.77;4.57;;;17.70;99.90;;;;;;5114529;28;20593;-78
2021/08/16 01:51:34;;;;;;;14.43;4.60;;;17.60;99.90;;;;;;5114130;28;20464;-80
2021/08/16 01:53:59;;;;;;;13.63;4.78;;;17.60;99.90;;;;;;5114581;28;20106;-81
2021/08/16 01:56:25;;;;;;;10.32;3.60;;;17.60;99.90;;;;;;5113757;28;20110;-76
2021/08/16 01:58:50;;;;;;;13.13;3.80;;;17.60;99.90;;;;;;5112661;28;20458;-84
2021/08/16 02:01:16;;;;;;;12.30;4.28;;;17.60;99.90;;;;;;5113172;28;20079;-73
2021/08/16 02:03:41;;;;;;;13.13;4.15;;;17.70;99.90;;;;;;5114545;28;20068;-78
2021/08/16 02:06:07;;;;;;;16.45;4.75;;;17.60;99.90;;;;;;5113816;28;20099;-74
2021/08/16 02:08:33;;;;;;;12.18;3.90;;;17.60;99.90;;;;;;5114566;28;20026;-83
2021/08/16 02:10:58;;;;;;;17.98;4.93;;;17.60;99.90;;;;;;5113541;28;20515;-78
2021/08/16 02:13:24;;;;;;;13.32;4.55;;;17.60;99.90;;;;;;5113081;28;20062;-81
2021/08/16 02:15:49;;;;;;;18.23;4.43;;;17.60;99.90;;;;;;5112532;28;20031;-83
2021/08/16 02:18:15;;;;;;;13.45;3.90;;;17.60;99.90;;;;;;5112585;28;20015;-74
2021/08/16 02:20:41;;;;;;;11.50;3.72;;;17.60;99.90;;;;;;5113846;28;20028;-79
2021/08/16 02:23:06;;;;;;;13.07;4.43;;;17.60;99.90;;;;;;5114307;28;20016;-80
2021/08/16 02:25:32;;;;;;;15.10;4.13;;;17.50;99.90;;;;;;5113445;28;20042;-74
2021/08/16 02:27:57;;;;;;;12.30;3.95;;;17.50;99.90;;;;;;5114031;28;20047;-85
2021/08/16 02:30:23;;;;;;;19.40;4.00;;;17.50;99.90;;;;;;5114025;28;20015;-87
2021/08/16 02:32:49;;;;;;;11.38;3.80;;;17.50;99.90;;;;;;5112230;28;20016;-74
2021/08/16 02:35:14;;;;;;;11.98;4.43;;;17.50;99.90;;;;;;5114440;28;20038;-75
2021/08/16 02:37:40;;;;;;;15.48;4.32;;;17.50;99.90;;;;;;5114209;28;20467;-80
2021/08/16 02:40:08;;;;;;;16.48;3.53;;;17.50;99.90;;;;;;5113932;28;20028;-83
2021/08/16 02:42:33;;;;;;;15.35;4.20;;;17.50;99.90;;;;;;5114414;28;20024;-89
2021/08/16 02:44:59;;;;;;;16.45;5.32;;;17.50;99.90;;;;;;5113831;28;20030;-77
2021/08/16 02:47:25;;;;;;;13.57;4.32;;;17.50;99.90;;;;;;5113291;28;20016;-81
2021/08/16 02:49:50;;;;;;;14.07;4.90;;;17.50;99.90;;;;;;5113519;28;20030;-78
2021/08/16 02:52:17;;;;;;;16.35;4.63;;;17.50;99.90;;;;;;5114152;28;20027;-86
2021/08/16 02:54:44;;;;;;;15.23;4.82;;;17.50;99.90;;;;;;5112734;28;20031;-73
2021/08/16 02:57:10;;;;;;;9.55;3.72;;;17.50;99.90;;;;;;5112870;28;20022;-75
2021/08/16 02:59:35;;;;;;;15.40;4.13;;;17.50;99.90;;;;;;5113912;28;20106;-83
2021/08/16 03:02:01;;;;;;;15.65;4.53;;;17.50;99.90;;;;;;5111811;28;20115;-86
2021/08/16 03:04:26;;;;;;;16.00;4.07;;;17.50;99.90;;;;;;5112612;28;20073;-79
2021/08/16 03:06:52;;;;;;;16.20;4.75;;;17.50;99.90;;;;;;5113272;28;20020;-73
2021/08/16 03:09:17;;;;;;;14.02;4.85;;;17.40;99.90;;;;;;5112942;28;20027;-81
2021/08/16 03:11:43;;;;;;;15.80;3.67;;;17.50;99.90;;;;;;5113284;28;20054;-75
2021/08/16 03:14:09;;;;;;;13.75;4.93;;;17.40;99.90;;;;;;5112914;28;20383;-86
2021/08/16 03:16:35;;;;;;;18.00;4.53;;;17.40;99.90;;;;;;5112705;28;20024;-76
2021/08/16 03:19:01;;;;;;;11.27;3.92;;;17.50;99.90;;;;;;5112409;28;20027;-74
2021/08/16 03:21:26;;;;;;;18.65;4.88;;;17.40;99.90;;;;;;5112973;28;20345;-81
2021/08/16 03:23:52;;;;;;;14.85;4.75;;;17.40;99.90;;;;;;5113562;28;20504;-85
2021/08/16 03:26:17;;;;;;;14.10;4.22;;;17.40;99.90;;;;;;5113593;28;20035;-78
2021/08/16 03:28:43;;;;;;;16.08;4.32;;;17.40;99.90;;;;;;5112881;28;20047;-74
2021/08/16 03:31:09;;;;;;;10.90;4.10;;;17.40;99.90;;;;;;5113683;28;20023;-87
2021/08/16 03:33:35;;;;;;;13.10;3.90;;;17.40;99.90;;;;;;5113719;28;20095;-81
2021/08/16 03:36:00;;;;;;;16.40;4.78;;;17.30;99.90;;;;;;5112886;28;20127;-82
2021/08/16 03:38:26;;;;;;;12.77;4.70;;;17.40;99.90;;;;;;5113708;28;20103;-82
2021/08/16 03:40:52;;;;;;;10.05;3.47;;;17.40;99.90;;;;;;5112945;28;20028;-79
2021/08/16 03:43:17;;;;;;;12.40;3.45;;;17.40;99.90;;;;;;5112928;28;20741;-74
2021/08/16 03:45:43;;;;;;;14.82;4.20;;;17.40;99.90;;;;;;5113202;28;20024;-77
2021/08/16 03:48:09;;;;;;;9.43;3.50;;;17.40;99.90;;;;;;5113289;28;20061;-76
2021/08/16 03:50:35;;;;;;;10.88;3.85;;;17.50;99.90;;;;;;5112473;28;20480;-74
2021/08/16 03:53:00;;;;;;;12.18;4.47;;;17.40;99.90;;;;;;5112882;28;20023;-81
2021/08/16 03:55:26;;;;;;;9.23;3.50;;;17.40;99.90;;;;;;5113246;28;20387;-82
2021/08/16 03:57:51;;;;;;;14.50;4.35;;;17.40;99.90;;;;;;5110963;28;20031;-73
2021/08/16 04:00:17;;;;;;;13.45;4.10;;;17.50;99.90;;;;;;5113386;28;20046;-77
2021/08/16 04:02:45;;;;;;;13.10;3.53;;;17.40;99.90;;;;;;5112835;28;20020;-74
2021/08/16 04:05:11;;;;;;;12.18;3.78;;;17.40;99.90;;;;;;5112737;28;20422;-84
2021/08/16 04:07:37;;;;;;;12.40;3.95;;;17.40;99.90;;;;;;5113245;28;20379;-86
2021/08/16 04:10:03;;;;;;;15.07;3.92;;;17.50;99.90;;;;;;5112693;28;20031;-82
2021/08/16 04:12:29;;;;;;;11.00;3.53;;;17.50;99.90;;;;;;5113219;28;20047;-73
2021/08/16 04:14:54;;;;;;;10.98;3.97;;;17.60;99.90;;;;;;5116630;28;20034;-75
2021/08/16 04:17:20;;;;;;;12.15;3.70;;;17.60;99.90;;;;;;5115720;28;20089;-74
2021/08/16 04:19:45;;;;;;;10.75;4.03;;;17.50;99.90;;;;;;5114764;28;20015;-78
2021/08/16 04:22:11;;;;;;;14.35;4.45;;;17.50;99.90;;;;;;5116884;28;20103;-87
2021/08/16 04:24:36;;;;;;;11.80;3.90;;;17.60;99.90;;;;;;5115911;28;20091;-76
2021/08/16 04:27:02;;;;;;;16.02;4.38;;;17.60;99.90;;;;;;5116457;28;20441;-78
2021/08/16 04:29:28;;;;;;;10.80;3.90;;;17.50;99.90;;;;;;5115188;28;20100;-75
2021/08/16 04:31:53;;;;;;;11.85;4.45;;;17.50;99.90;;;;;;5115540;28;20047;-76
2021/08/16 04:34:19;;;;;;;13.57;4.05;;;17.50;99.90;;;;;;5116470;28;20024;-82
2021/08/16 04:36:44;;;;;;;16.85;4.40;;;17.50;99.90;;;;;;5115337;28;20027;-83
2021/08/16 04:39:10;;;;;;;9.48;3.80;;;17.60;99.90;;;;;;5114257;28;20434;-75
2021/08/16 04:41:36;;;;;;;10.00;3.92;;;17.50;99.90;;;;;;5116308;28;20020;-83
2021/08/16 04:44:01;;;;;;;10.32;3.75;;;17.50;99.90;;;;;;5114676;28;20051;-82
2021/08/16 04:46:27;;;;;;;9.10;4.18;;;17.50;99.90;;;;;;5115946;28;20012;-76
2021/08/16 04:48:52;;;;;;;11.70;4.13;;;17.60;99.90;;;;;;5114517;28;20045;-74
2021/08/16 04:51:18;;;;;;;14.10;4.90;;;17.50;99.90;;;;;;5116160;28;20024;-76
2021/08/16 04:53:43;;;;;;;10.75;3.83;;;17.50;99.90;;;;;;5114795;28;20023;-73
2021/08/16 04:56:09;;;;;;;13.38;4.53;;;17.60;99.90;;;;;;5115868;28;20027;-78
2021/08/16 04:58:34;;;;;;;13.85;4.20;;;17.60;99.90;;;;;;5114583;28;20028;-78
2021/08/16 05:01:00;;;;;;;13.52;5.00;;;17.70;99.90;;;;;;5113553;28;20030;-83
2021/08/16 05:03:26;;;;;;;14.90;4.15;;;17.70;99.90;;;;;;5115947;28;20020;-75
2021/08/16 05:05:54;;;;;;;16.60;4.63;;;17.70;99.90;;;;;;5115640;28;20027;-77
2021/08/16 05:08:19;;;;;;;10.77;4.25;;;17.70;99.90;;;;;;5114106;28;20020;-86
2021/08/16 05:10:49;;;;;;;10.55;3.35;;;17.70;99.90;;;;;;5115155;28;20529;-83
2021/08/16 05:13:14;;;;;;;14.65;5.00;;;17.70;99.90;;;;;;5115312;28;20039;-85
2021/08/16 05:15:44;;;;;;;15.20;5.50;;;17.70;99.90;;;;;;5113407;28;20130;-75
2021/08/16 05:18:10;;;;;;;12.52;4.47;;;17.70;99.90;;;;;;5114339;28;20471;-81
2021/08/16 05:20:37;;;;;;;13.32;4.85;;;17.70;99.90;;;;;;5114475;28;20015;-86
2021/08/16 05:23:03;;;;;;;20.42;5.10;;;17.80;99.90;;;;;;5114254;28;20012;-79
2021/08/16 05:25:29;;;;;;;12.48;5.07;;;17.80;99.90;;;;;;5113657;28;20055;-86
2021/08/16 05:27:55;;;;;;;12.45;5.60;;;17.80;99.90;;;;;;5113116;28;20490;-83
2021/08/16 05:30:20;;;;;;;16.70;4.78;;;17.80;99.90;;;;;;5115007;28;20038;-78
2021/08/16 05:32:47;;;;;;;11.02;4.80;;;17.80;99.90;;;;;;5113442;28;20089;-75
2021/08/16 05:35:13;;;;;;;11.13;5.10;;;17.80;99.90;;;;;;5114387;28;20032;-78
2021/08/16 05:37:38;;;;;;;11.70;5.35;;;17.90;99.90;;;;;;5113778;28;20030;-78
2021/08/16 05:40:05;;;;;;;10.43;4.30;;;17.90;99.90;;;;;;5114433;27;20100;-74
2021/08/16 05:42:30;;;;;;;12.30;5.10;;;17.90;99.90;;;;;;5113984;28;20028;-78
2021/08/16 05:44:56;;;;;;;14.25;6.18;;;18.00;99.90;;;;;;5113189;28;20028;-79
2021/08/16 05:47:22;;;;;;;11.40;5.63;;;18.00;99.90;;;;;;5099361;28;20465;-78
2021/08/16 05:49:47;;;;;;;12.32;6.30;;;18.10;99.90;;;;;;5093252;28;20012;-79
2021/08/16 05:52:13;;;;;;;14.98;5.97;;;18.10;99.90;;;;;;5091874;28;20027;-78
2021/08/16 05:54:38;;;;;;;13.75;6.32;;;18.20;99.90;;;;;;5091967;28;20066;-80
2021/08/16 05:57:04;;;;;;;11.45;6.03;;;18.20;99.90;;;;;;5092504;28;20030;-78
2021/08/16 05:59:30;;;;;;;15.73;6.75;;;18.20;99.90;;;;;;5091842;28;20019;-86
2021/08/16 06:01:55;;;;;;;16.05;7.03;;;18.20;99.90;;;;;;5093168;28;20467;-73
2021/08/16 06:04:21;;;;;;;16.63;7.45;;;18.20;99.90;;;;;;5093770;28;20020;-73
2021/08/16 06:06:46;;;;;;;14.02;7.13;;;18.20;99.90;;;;;;5093561;28;20024;-81
2021/08/16 06:09:12;;;;;;;13.55;6.63;;;18.10;99.90;;;;;;5094192;28;20024;-74
2021/08/16 06:11:37;;;;;;;12.60;7.40;;;18.10;99.90;;;;;;5092298;28;20047;-78
2021/08/16 06:14:03;;;;;;;12.30;7.22;;;18.10;99.90;;;;;;5093617;28;20472;-77
2021/08/16 06:16:29;;;;;;;16.90;8.27;;;18.10;99.90;;;;;;5092321;28;20480;-74
2021/08/16 06:18:54;;;;;;;19.17;8.73;;;18.10;99.90;;;;;;5093020;28;20016;-78
2021/08/16 06:21:20;;;;;;;15.73;7.28;;;18.10;99.90;;;;;;5093841;28;20020;-77
2021/08/16 06:23:45;;;;;;;12.38;8.02;;;18.20;99.90;;;;;;5093355;28;20376;-79
2021/08/16 06:26:11;;;;;;;13.32;7.63;;;18.20;99.90;;;;;;5110681;28;20030;-74
2021/08/16 06:28:37;;;;;;;16.30;8.38;;;18.20;99.90;;;;;;5113681;28;20024;-75
2021/08/16 06:31:03;;;;;;;19.83;8.35;;;18.10;99.90;;;;;;5113386;28;20027;-77
2021/08/16 06:33:29;;;;;;;13.20;7.10;;;18.20;99.90;;;;;;5114077;28;20023;-80
2021/08/16 06:35:55;;;;;;;13.10;8.68;;;18.20;99.90;;;;;;5113509;28;20039;-74
2021/08/16 06:38:24;;;;;;;12.98;9.25;;;18.20;99.90;;;;;;5112204;28;20286;-75
2021/08/16 06:40:55;;;;;;;18.52;9.75;;;18.10;99.90;;;;;;5112455;28;20418;-86
2021/08/16 06:43:22;;;;;;;12.48;9.13;;;18.00;99.90;;;;;;5074032;28;20389;-82
2021/08/16 06:45:48;;;;;;;13.70;9.50;;;17.90;99.90;;;;;;5086467;28;20430;-79
2021/08/16 06:48:14;;;;;;;16.63;10.25;;;17.80;99.90;;;;;;5105380;28;20016;-78
2021/08/16 06:50:40;;;;;;;13.60;9.35;;;17.70;99.90;;;;;;5092273;28;20028;-83
2021/08/16 06:53:07;;;;;;;13.15;9.90;;;17.70;99.90;;;;;;5092787;28;20389;-80
2021/08/16 06:55:33;;;;;;;14.55;9.80;;;17.60;99.90;;;;;;5092937;28;20111;-73
2021/08/16 06:58:00;;;;;;;16.05;11.57;;;17.60;99.90;;;;;;5092101;28;20104;-85
2021/08/16 07:00:26;;;;;;;15.45;10.15;;;17.60;99.90;;;;;;5081080;28;20025;-75
2021/08/16 07:02:51;;;;;;;13.48;9.43;;;17.60;99.90;;;;;;5082819;28;20043;-73
2021/08/16 07:05:17;;;;;;;12.23;9.90;;;17.70;99.90;;;;;;5096364;28;20024;-70
2021/08/16 07:07:42;;;;;;;13.48;10.30;;;17.70;99.90;;;;;;5092614;28;20022;-73
2021/08/16 07:10:09;;;;;;;14.90;10.43;;;17.70;99.90;;;;;;5092745;28;20031;-74
2021/08/16 07:12:34;;;;;;;14.68;9.98;;;17.70;99.90;;;;;;5091906;28;20083;-73
2021/08/16 07:15:00;;;;;;;11.15;8.85;;;17.70;99.90;;;;;;5090987;28;20548;-80
2021/08/16 07:17:26;;;;;;;11.07;8.00;;;17.70;99.90;;;;;;5088224;28;20028;-76
2021/08/16 07:19:52;;;;;;;11.60;7.15;;;17.70;99.90;;;;;;5089828;28;20419;-86
2021/08/16 07:22:17;;;;;;;9.70;6.15;;;17.80;99.90;;;;;;5090394;28;20027;-85
2021/08/16 07:24:43;;;;;;;7.78;6.32;;;17.80;99.90;;;;;;5072417;28;20434;-75
2021/08/16 07:27:09;;;;;;;8.90;6.20;;;17.80;99.90;;;;;;5074840;28;20115;-75
2021/08/16 07:29:35;;;;;;;10.02;6.60;;;17.80;99.90;;;;;;5070783;28;20059;-75
2021/08/16 07:32:00;;;;;;;7.32;6.38;;;17.60;99.90;;;;;;5073511;28;20385;-75
2021/08/16 07:34:26;;;;;;;7.63;5.80;;;17.50;99.90;;;;;;5070589;28;20024;-80
2021/08/16 07:36:54;;;;;;;7.53;6.18;;;17.40;99.90;;;;;;5080222;28;20039;-73
2021/08/16 07:39:20;;;;;;;9.63;5.60;;;17.20;99.90;;;;;;5093711;28;20043;-75
2021/08/16 07:41:46;;;;;;;6.22;4.75;;;17.20;99.90;;;;;;5112701;28;20027;-89
2021/08/16 07:44:11;;;;;;;4.88;3.42;;;17.10;99.90;;;;;;5111919;28;20019;-76
2021/08/16 07:46:37;;;;;;;7.88;4.40;;;17.10;99.90;;;;;;5111354;28;20612;-77
2021/08/16 07:49:02;;;;;;;6.30;3.10;;;17.10;99.90;;;;;;5115881;28;20111;-79
2021/08/16 07:51:28;;;;;;;5.18;2.72;;;17.10;99.90;;;;;;5077454;28;20043;-74
2021/08/16 07:53:54;;;;;;;4.30;2.65;;;17.20;99.90;;;;;;5077544;28;20052;-79
2021/08/16 07:56:19;;;;;;;5.60;2.70;;;17.10;99.90;;;;;;5094829;28;20035;-82
2021/08/16 07:58:45;;;;;;;3.08;2.05;;;17.10;99.90;;;;;;5094114;28;20028;-73
2021/08/16 08:01:10;;;;;;;5.32;2.30;;;17.20;99.90;;;;;;5095587;28;20038;-75
2021/08/16 08:03:36;;;;;;;3.78;2.15;;;17.10;99.90;;;;;;5079150;28;20125;-75
2021/08/16 08:06:01;;;;;;;4.32;2.53;;;17.10;99.90;;;;;;5080387;28;20028;-81
2021/08/16 08:08:27;;;;;;;7.53;2.30;;;17.20;99.90;;;;;;5097033;28;20055;-75
2021/08/16 08:10:52;;;;;;;8.60;3.00;;;17.20;99.90;;;;;;5094778;28;20024;-82
2021/08/16 08:13:18;;;;;;;8.88;3.30;;;17.20;99.90;;;;;;5094543;28;20121;-79
2021/08/16 08:15:44;;;;;;;5.10;2.63;;;17.20;99.90;;;;;;5094792;28;20024;-74
2021/08/16 08:18:10;;;;;;;7.95;2.50;;;17.10;99.90;;;;;;5095651;28;20031;-75
2021/08/16 08:20:37;;;;;;;9.98;2.70;;;17.00;99.90;;;;;;5093005;28;20032;-77
2021/08/16 08:23:03;;;;;;;5.25;2.28;;;16.90;99.90;;;;;;5094902;28;20017;-88
2021/08/16 08:25:29;;;;;;;6.22;2.97;;;16.70;99.90;;;;;;5094277;28;20345;-84
2021/08/16 08:27:54;;;;;;;5.13;3.00;;;16.30;99.90;;;;;;5090324;28;20032;-73
2021/08/16 08:30:20;;;;;;;7.22;2.67;;;16.10;99.90;;;;;;5093451;28;20032;-74
2021/08/16 08:32:51;;;;;;;4.63;2.70;;;15.90;99.90;;;;;;5094886;28;20020;-78
2021/08/16 08:35:19;;;;;;;5.90;2.90;;;15.70;99.90;;;;;;5094448;28;20043;-75
2021/08/16 08:37:45;;;;;;;8.05;2.80;;;15.60;99.90;;;;;;5093427;28;20026;-74
2021/08/16 08:40:11;;;;;;;5.25;2.70;;;15.60;99.90;;;;;;5095158;28;20119;-76
2021/08/16 08:42:37;;;;;;;7.95;2.70;;;15.60;99.90;;;;;;5076286;28;20021;-75
2021/08/16 08:45:05;;;;;;;4.93;2.72;;;15.60;99.90;;;;;;5093081;28;20035;-72
2021/08/16 08:47:33;;;;;;;6.10;2.70;;;15.80;99.90;;;;;;5083682;28;20095;-74
2021/08/16 08:49:58;;;;;;;10.52;3.53;;;16.10;99.90;;;;;;5086313;28;20127;-78
2021/08/16 08:52:32;;;;;;;5.15;3.00;;;16.40;99.90;;;;;;5094067;28;20103;-90
2021/08/16 08:54:57;;;;;;;5.72;2.92;;;16.70;99.90;;;;;;5081344;28;20120;-81
2021/08/16 08:57:24;;;;;;;4.72;2.55;;;16.90;99.90;;;;;;5074285;28;20381;-83
2021/08/16 08:59:49;;;;;;;5.75;2.63;;;17.20;99.90;;;;;;5072810;28;20024;-79
2021/08/16 09:02:17;;;;;;;7.05;3.13;;;17.50;99.90;;;;;;5092044;28;20020;-77
2021/08/16 09:04:53;;;;;;;10.38;3.00;;;17.90;99.90;;;;;;5094661;28;20031;-76
2021/08/16 09:07:36;;;;;;;5.45;2.92;;;18.00;99.90;;;;;;5093578;28;20024;-86
2021/08/16 09:10:05;;;;;;;4.25;2.35;;;18.30;99.90;;;;;;5087383;28;20381;-73
2021/08/16 09:12:35;;;;;;;6.10;3.10;;;18.50;99.90;;;;;;5093474;28;20048;-74
2021/08/16 09:15:03;;;;;;;9.05;3.40;;;18.70;99.90;;;;;;5093540;28;20085;-75
2021/08/16 09:17:31;;;;;;;6.28;2.70;;;18.80;99.90;;;;;;5080006;28;20135;-73
2021/08/16 09:19:57;;;;;;;4.35;2.53;;;18.90;99.90;;;;;;5073049;28;20025;-74
2021/08/16 09:22:31;;;;;;;7.93;2.50;;;18.90;99.90;;;;;;5078092;28;20518;-77
2021/08/16 09:25:18;;;;;;;6.82;2.70;;;19.20;99.90;;;;;;5074277;28;20477;-76
2021/08/16 09:27:46;;;;;;;9.10;2.65;;;19.60;99.90;;;;;;5073367;28;20020;-74
2021/08/16 09:30:13;;;;;;;5.03;2.20;;;19.70;99.90;;;;;;5074958;28;20447;-73
2021/08/16 09:32:40;;;;;;;5.00;2.80;;;19.80;99.90;;;;;;5093561;28;20077;-73
2021/08/16 09:35:14;;;;;;;6.25;2.42;;;19.70;99.90;;;;;;5093654;28;20055;-74
2021/08/16 09:37:40;;;;;;;8.18;2.80;;;19.50;99.90;;;;;;5080417;28;20035;-79
2021/08/16 09:40:17;;;;;;;8.93;2.85;;;19.20;99.90;;;;;;5087410;28;20030;-77
2021/08/16 09:42:45;;;;;;;5.55;2.88;;;19.10;99.90;;;;;;5096047;28;20024;-74
2021/08/16 09:45:37;;;;;;;7.50;3.22;;;19.00;99.90;;;;;;5112843;28;20023;-74
2021/08/16 09:48:04;;;;;;;7.00;2.83;;;19.00;99.90;;;;;;5078940;28;20070;-77
2021/08/16 09:50:44;;;;;;;7.03;3.03;;;18.90;99.90;;;;;;5091922;28;20408;-74
2021/08/16 09:53:12;;;;;;;9.88;3.42;;;18.80;99.90;;;;;;5076776;28;20116;-74
2021/08/16 09:55:40;;;;;;;6.05;3.15;;;18.70;99.90;;;;;;5081947;28;20044;-81
2021/08/16 09:58:13;;;;;;;14.45;4.03;;;18.60;99.90;;;;;;5088529;28;20051;-81
2021/08/16 10:00:44;;;;;;;6.25;2.85;;;18.70;99.90;;;;;;5093444;28;20027;-78
2021/08/16 10:03:11;;;;;;;6.30;3.05;;;19.00;99.90;;;;;;5078092;28;20059;-72
2021/08/16 10:05:39;;;;;;;6.47;2.83;;;19.30;99.90;;;;;;5076366;28;20111;-81
2021/08/16 10:08:12;;;;;;;6.00;2.97;;;19.60;99.90;;;;;;5091899;28;20053;-77
2021/08/16 10:10:39;;;;;;;10.43;3.85;;;19.60;99.90;;;;;;5075526;28;20024;-74
2021/08/16 10:13:08;;;;;;;7.82;3.47;;;19.70;99.90;;;;;;5088736;28;20051;-83
2021/08/16 10:15:42;;;;;;;7.10;3.50;;;19.60;99.90;;;;;;5093035;28;20115;-76
2021/08/16 10:18:15;;;;;;;6.20;3.85;;;19.40;99.90;;;;;;5091984;28;20043;-83
2021/08/16 10:20:44;;;;;;;9.45;3.90;;;19.20;99.90;;;;;;5089229;28;20023;-72
2021/08/16 10:23:45;;;;;;;8.27;3.60;;;19.10;99.90;;;;;;5092263;28;20480;-76
2021/08/16 10:26:11;;;;;;;8.53;4.17;;;19.10;99.90;;;;;;5083246;28;20380;-82
2021/08/16 10:28:40;;;;;;;11.98;3.90;;;19.20;99.90;;;;;;5073624;28;20263;-74
2021/08/16 10:31:06;;;;;;;10.23;4.30;;;19.50;99.90;;;;;;5073093;28;20452;-87
2021/08/16 10:33:43;;;;;;;10.82;4.70;;;19.80;99.90;;;;;;5074027;28;20059;-71
2021/08/16 10:36:21;;;;;;;8.07;4.07;;;20.30;99.90;;;;;;5074829;28;20040;-80
2021/08/16 10:38:52;;;;;;;7.43;4.68;;;20.60;99.90;;;;;;5080988;28;20016;-88
2021/08/16 10:41:26;;;;;;;7.88;4.50;;;20.80;99.90;;;;;;5092594;28;20028;-77
2021/08/16 10:43:52;;;;;;;12.00;5.75;;;20.90;99.90;;;;;;5093394;28;20480;-73
2021/08/16 10:46:21;;;;;;;8.77;4.75;;;20.90;99.90;;;;;;5091764;28;20028;-74
2021/08/16 10:48:57;;;;;;;7.18;4.25;;;21.10;99.90;;;;;;5093389;28;20461;-86
2021/08/16 10:51:23;;;;;;;8.35;4.07;;;21.20;99.90;;;;;;5091995;28;20047;-73
2021/08/16 10:53:51;;;;;;;6.32;4.00;;;21.20;99.90;;;;;;5092187;28;20020;-82
2021/08/16 10:56:18;;;;;;;11.05;4.85;;;21.20;99.90;;;;;;5093211;28;20036;-72
2021/08/16 10:58:45;;;;;;;7.20;4.97;;;21.10;99.90;;;;;;5092671;28;20023;-74
2021/08/16 11:01:34;;;;;;;8.68;4.63;;;21.00;99.90;;;;;;5092378;28;20031;-88
2021/08/16 11:04:06;;;;;;;7.15;4.47;;;20.90;99.90;;;;;;5091850;28;20055;-81
2021/08/16 11:06:32;;;;;;;6.55;4.25;;;20.70;99.90;;;;;;5092975;28;20406;-81
2021/08/16 11:09:02;;;;;;;7.13;4.15;;;20.60;99.90;;;;;;5093191;28;20465;-86
2021/08/16 11:11:30;;;;;;;8.63;4.63;;;20.70;99.80;;;;;;5091878;28;20031;-82
2021/08/16 11:14:09;;;;;;;8.13;4.82;;;20.70;99.90;;;;;;5092406;28;20085;-74
2021/08/16 11:16:49;;;;;;;5.97;4.20;;;20.70;99.90;;;;;;5093269;28;20511;-76
2021/08/16 11:19:15;;;;;;;6.13;3.80;;;20.90;99.90;;;;;;5093466;28;20051;-72
2021/08/16 11:21:51;;;;;;;6.22;3.40;;;20.90;99.70;;;;;;5091390;28;20054;-73
2021/08/16 11:24:28;;;;;;;8.52;4.10;;;20.60;99.90;;;;;;5097594;28;20028;-82
2021/08/16 11:26:55;;;;;;;7.32;4.00;;;20.30;99.40;;;;;;5095239;28;20043;-75
2021/08/16 11:29:23;;;;;;;7.07;4.13;;;20.30;99.50;;;;;;5096866;28;20012;-76
2021/08/16 11:31:58;;;;;;;6.28;3.47;;;20.30;99.50;;;;;;5096878;28;20078;-76
2021/08/16 11:34:25;;;;;;;7.85;4.13;;;20.30;99.90;;;;;;5094919;28;20024;-77
2021/08/16 11:36:50;;;;;;;6.75;3.88;;;20.20;99.90;;;;;;5096590;28;20023;-72
2021/08/16 11:39:16;;;;;;;5.20;2.67;;;19.80;99.90;;;;;;5097176;28;20103;-72
2021/08/16 11:41:41;;;;;;;6.88;3.67;;;19.20;99.90;;;;;;5096029;28;20029;-76
2021/08/16 11:44:15;;;;;;;4.90;3.00;;;18.30;99.90;;;;;;5096914;28;20032;-72
2021/08/16 11:46:41;;;;;;;6.55;3.33;;;17.30;99.90;;;;;;5097163;28;20224;-72
2021/08/16 11:49:09;;;;;;;5.78;3.55;;;16.70;99.90;;;;;;5094932;28;20024;-75
2021/08/16 11:51:35;;;;;;;6.90;3.78;;;16.60;99.90;;;;;;5096618;28;20016;-78
2021/08/16 11:54:00;;;;;;;5.40;3.33;;;16.70;99.90;;;;;;5095027;28;20469;-77
2021/08/16 11:56:26;;;;;;;4.82;3.22;;;17.00;99.90;;;;;;5094771;28;20035;-72
2021/08/16 11:58:52;;;;;;;7.82;3.60;;;17.30;99.90;;;;;;5096339;28;20024;-75
2021/08/16 12:01:19;;;;;;;8.85;3.25;;;17.30;99.90;;;;;;5095449;28;20027;-79
2021/08/16 12:03:44;;;;;;;6.68;3.42;;;17.20;99.90;;;;;;5095903;28;20031;-81
2021/08/16 12:06:13;;;;;;;5.88;3.28;;;17.20;99.90;;;;;;5096733;28;20032;-77
2021/08/16 12:08:39;;;;;;;5.85;3.25;;;17.10;99.90;;;;;;5094953;28;20043;-81
2021/08/16 12:11:13;;;;;;;5.57;3.35;;;17.00;99.90;;;;;;5095992;28;20476;-80
2021/08/16 12:13:40;;;;;;;7.18;3.30;;;16.90;99.90;;;;;;5095174;28;20392;-75
2021/08/16 12:16:06;;;;;;;6.63;3.42;;;16.60;99.90;;;;;;5095444;28;20116;-76
2021/08/16 12:18:33;;;;;;;7.78;3.92;;;16.40;99.90;;;;;;5096309;28;20039;-85
2021/08/16 12:20:59;;;;;;;7.32;3.17;;;16.20;99.90;;;;;;5094756;28;20069;-79
2021/08/16 12:23:27;;;;;;;10.20;4.60;;;16.00;99.90;;;;;;5094536;28;20016;-81
2021/08/16 12:25:52;;;;;;;10.40;4.05;;;16.00;99.90;;;;;;5094776;28;20051;-84
2021/08/16 12:28:18;;;;;;;8.93;3.70;;;16.20;99.90;;;;;;5095968;28;20464;-83
2021/08/16 12:30:44;;;;;;;15.40;3.85;;;16.50;99.90;;;;;;5095208;28;20035;-78
2021/08/16 12:33:14;;;;;;;10.38;4.50;;;16.60;99.90;;;;;;5095682;28;20027;-73
2021/08/16 12:35:52;;;;;;;8.13;3.83;;;16.60;99.90;;;;;;5095755;28;20032;-77
2021/08/16 12:38:28;;;;;;;9.02;3.53;;;16.50;99.90;;;;;;5094283;28;20012;-79
2021/08/16 12:41:08;;;;;;;11.18;3.40;;;16.60;99.90;;;;;;5094063;28;20135;-76